<?xml version="1.0" encoding="UTF-8" standalone="no" ?>
<gpx xmlns="http://www.topografix.com/GPX/1/1" xmlns:xsi="http://www.w3.org/2001/XMLSchema-instance" xsi:schemaLocation="http://www.topografix.com/GPX/1/1 http://www.topografix.com/GPX/1/1/gpx.xsd" version="1.1" creator="VisuGPX - https://www.visugpx.com">
  <metadata>
    <name>Saint-Rémy-lès-Chevreuse:La forêt et le chateau de Meridon</name>
  </metadata>
  <trk>
    <name><![CDATA[OR-7134954--Saint-Rémy-lès-Chevreuse:La forêt et le chateau de Meridon]]></name>
    <extensions>
      <line xmlns="http://www.topografix.com/GPX/gpx_style/0/2">
        <color>0000FF</color>
        <width>4</width>
      </line>
    </extensions>
    <trkseg>
      <trkpt lat="48.70307" lon="2.07068">
        <ele>79</ele>
        <time>2017-03-11T19:44:29Z</time>
      </trkpt>
      <trkpt lat="48.70307" lon="2.0696">
        <ele>78</ele>
        <time>2017-03-11T19:46:29Z</time>
      </trkpt>
      <trkpt lat="48.70219" lon="2.06953">
        <ele>83</ele>
        <time>2017-03-11T19:48:29Z</time>
      </trkpt>
      <trkpt lat="48.70133" lon="2.06597">
        <ele>80</ele>
        <time>2017-03-11T19:50:29Z</time>
      </trkpt>
      <trkpt lat="48.70074" lon="2.06418">
        <ele>84</ele>
        <time>2017-03-11T19:52:29Z</time>
      </trkpt>
      <trkpt lat="48.69982" lon="2.06269">
        <ele>90</ele>
        <time>2017-03-11T19:54:29Z</time>
      </trkpt>
      <trkpt lat="48.69853" lon="2.06168">
        <ele>97</ele>
        <time>2017-03-11T19:56:29Z</time>
      </trkpt>
      <trkpt lat="48.69743" lon="2.06117">
        <ele>100</ele>
        <time>2017-03-11T19:58:29Z</time>
      </trkpt>
      <trkpt lat="48.69779" lon="2.05971">
        <ele>108</ele>
        <time>2017-03-11T20:00:29Z</time>
      </trkpt>
      <trkpt lat="48.69637" lon="2.05904">
        <ele>116</ele>
        <time>2017-03-11T20:02:29Z</time>
      </trkpt>
      <trkpt lat="48.69502" lon="2.05905">
        <ele>113</ele>
        <time>2017-03-11T20:04:29Z</time>
      </trkpt>
      <trkpt lat="48.69374" lon="2.0597">
        <ele>119</ele>
        <time>2017-03-11T20:06:29Z</time>
      </trkpt>
      <trkpt lat="48.69145" lon="2.06083">
        <ele>131</ele>
        <time>2017-03-11T20:08:29Z</time>
      </trkpt>
      <trkpt lat="48.69073" lon="2.06104">
        <ele>132</ele>
        <time>2017-03-11T20:10:29Z</time>
      </trkpt>
      <trkpt lat="48.68916" lon="2.06115">
        <ele>128</ele>
        <time>2017-03-11T20:12:29Z</time>
      </trkpt>
      <trkpt lat="48.6873" lon="2.0617">
        <ele>122</ele>
        <time>2017-03-11T20:14:29Z</time>
      </trkpt>
      <trkpt lat="48.6864" lon="2.06191">
        <ele>131</ele>
        <time>2017-03-11T20:16:29Z</time>
      </trkpt>
      <trkpt lat="48.6855" lon="2.06178">
        <ele>142</ele>
        <time>2017-03-11T20:18:29Z</time>
      </trkpt>
      <trkpt lat="48.68464" lon="2.06127">
        <ele>141</ele>
        <time>2017-03-11T20:20:29Z</time>
      </trkpt>
      <trkpt lat="48.68386" lon="2.06036">
        <ele>137</ele>
        <time>2017-03-11T20:22:29Z</time>
      </trkpt>
      <trkpt lat="48.68322" lon="2.05908">
        <ele>139</ele>
        <time>2017-03-11T20:24:29Z</time>
      </trkpt>
      <trkpt lat="48.68232" lon="2.05647">
        <ele>147</ele>
        <time>2017-03-11T20:26:29Z</time>
      </trkpt>
      <trkpt lat="48.6818" lon="2.05559">
        <ele>147</ele>
        <time>2017-03-11T20:28:29Z</time>
      </trkpt>
      <trkpt lat="48.68072" lon="2.05454">
        <ele>154</ele>
        <time>2017-03-11T20:30:29Z</time>
      </trkpt>
      <trkpt lat="48.67865" lon="2.05303">
        <ele>158</ele>
        <time>2017-03-11T20:32:29Z</time>
      </trkpt>
      <trkpt lat="48.67725" lon="2.05222">
        <ele>154</ele>
        <time>2017-03-11T20:34:29Z</time>
      </trkpt>
      <trkpt lat="48.67727" lon="2.05191">
        <ele>157</ele>
        <time>2017-03-11T20:36:29Z</time>
      </trkpt>
      <trkpt lat="48.67696" lon="2.05175">
        <ele>156</ele>
        <time>2017-03-11T20:38:29Z</time>
      </trkpt>
      <trkpt lat="48.67704" lon="2.0494">
        <ele>163</ele>
        <time>2017-03-11T20:40:29Z</time>
      </trkpt>
      <trkpt lat="48.67666" lon="2.04808">
        <ele>163</ele>
        <time>2017-03-11T20:42:29Z</time>
      </trkpt>
      <trkpt lat="48.67636" lon="2.04751">
        <ele>163</ele>
        <time>2017-03-11T20:44:29Z</time>
      </trkpt>
      <trkpt lat="48.67636" lon="2.04652">
        <ele>164</ele>
        <time>2017-03-11T20:46:29Z</time>
      </trkpt>
      <trkpt lat="48.6729" lon="2.04525">
        <ele>171</ele>
        <time>2017-03-11T20:48:29Z</time>
      </trkpt>
      <trkpt lat="48.6739" lon="2.03344">
        <ele>172</ele>
        <time>2017-03-11T20:50:29Z</time>
      </trkpt>
      <trkpt lat="48.67925" lon="2.03402">
        <ele>167</ele>
        <time>2017-03-11T20:52:29Z</time>
      </trkpt>
      <trkpt lat="48.68002" lon="2.03351">
        <ele>169</ele>
        <time>2017-03-11T20:54:29Z</time>
      </trkpt>
      <trkpt lat="48.68206" lon="2.03227">
        <ele>173</ele>
        <time>2017-03-11T20:56:29Z</time>
      </trkpt>
      <trkpt lat="48.68226" lon="2.03108">
        <ele>175</ele>
        <time>2017-03-11T20:58:29Z</time>
      </trkpt>
      <trkpt lat="48.68252" lon="2.03061">
        <ele>177</ele>
        <time>2017-03-11T21:00:29Z</time>
      </trkpt>
      <trkpt lat="48.68549" lon="2.03201">
        <ele>173</ele>
        <time>2017-03-11T21:02:29Z</time>
      </trkpt>
      <trkpt lat="48.68569" lon="2.03127">
        <ele>177</ele>
        <time>2017-03-11T21:04:29Z</time>
      </trkpt>
      <trkpt lat="48.69116" lon="2.03364">
        <ele>164</ele>
        <time>2017-03-11T21:06:29Z</time>
      </trkpt>
      <trkpt lat="48.69105" lon="2.03426">
        <ele>161</ele>
        <time>2017-03-11T21:08:29Z</time>
      </trkpt>
      <trkpt lat="48.69152" lon="2.03503">
        <ele>160</ele>
        <time>2017-03-11T21:10:29Z</time>
      </trkpt>
      <trkpt lat="48.69423" lon="2.03688">
        <ele>163</ele>
        <time>2017-03-11T21:12:29Z</time>
      </trkpt>
      <trkpt lat="48.69776" lon="2.03914">
        <ele>168</ele>
        <time>2017-03-11T21:14:29Z</time>
      </trkpt>
      <trkpt lat="48.69936" lon="2.04025">
        <ele>143</ele>
        <time>2017-03-11T21:16:29Z</time>
      </trkpt>
      <trkpt lat="48.69988" lon="2.04072">
        <ele>134</ele>
        <time>2017-03-11T21:18:29Z</time>
      </trkpt>
      <trkpt lat="48.69988" lon="2.04106">
        <ele>137</ele>
        <time>2017-03-11T21:20:29Z</time>
      </trkpt>
      <trkpt lat="48.7008" lon="2.04078">
        <ele>116</ele>
        <time>2017-03-11T21:22:29Z</time>
      </trkpt>
      <trkpt lat="48.70268" lon="2.0403">
        <ele>94</ele>
        <time>2017-03-11T21:24:29Z</time>
      </trkpt>
      <trkpt lat="48.70432" lon="2.03944">
        <ele>83</ele>
        <time>2017-03-11T21:26:29Z</time>
      </trkpt>
      <trkpt lat="48.70457" lon="2.03784">
        <ele>82</ele>
        <time>2017-03-11T21:28:29Z</time>
      </trkpt>
      <trkpt lat="48.70488" lon="2.03777">
        <ele>80</ele>
        <time>2017-03-11T21:30:29Z</time>
      </trkpt>
      <trkpt lat="48.70546" lon="2.03774">
        <ele>79</ele>
        <time>2017-03-11T21:32:29Z</time>
      </trkpt>
      <trkpt lat="48.70551" lon="2.03831">
        <ele>79</ele>
        <time>2017-03-11T21:34:29Z</time>
      </trkpt>
      <trkpt lat="48.70659" lon="2.0398">
        <ele>80</ele>
        <time>2017-03-11T21:36:29Z</time>
      </trkpt>
      <trkpt lat="48.70749" lon="2.03939">
        <ele>85</ele>
        <time>2017-03-11T21:38:29Z</time>
      </trkpt>
      <trkpt lat="48.70758" lon="2.03983">
        <ele>87</ele>
        <time>2017-03-11T21:40:29Z</time>
      </trkpt>
      <trkpt lat="48.70812" lon="2.04027">
        <ele>91</ele>
        <time>2017-03-11T21:42:29Z</time>
      </trkpt>
      <trkpt lat="48.70844" lon="2.04054">
        <ele>95</ele>
        <time>2017-03-11T21:44:29Z</time>
      </trkpt>
      <trkpt lat="48.70804" lon="2.04275">
        <ele>93</ele>
        <time>2017-03-11T21:46:29Z</time>
      </trkpt>
      <trkpt lat="48.70759" lon="2.04285">
        <ele>88</ele>
        <time>2017-03-11T21:48:29Z</time>
      </trkpt>
      <trkpt lat="48.70752" lon="2.04367">
        <ele>87</ele>
        <time>2017-03-11T21:50:29Z</time>
      </trkpt>
      <trkpt lat="48.70721" lon="2.04384">
        <ele>85</ele>
        <time>2017-03-11T21:52:29Z</time>
      </trkpt>
      <trkpt lat="48.70717" lon="2.04414">
        <ele>84</ele>
        <time>2017-03-11T21:54:29Z</time>
      </trkpt>
      <trkpt lat="48.70681" lon="2.04404">
        <ele>81</ele>
        <time>2017-03-11T21:56:29Z</time>
      </trkpt>
      <trkpt lat="48.70654" lon="2.04568">
        <ele>80</ele>
        <time>2017-03-11T21:58:29Z</time>
      </trkpt>
      <trkpt lat="48.70602" lon="2.04568">
        <ele>79</ele>
        <time>2017-03-11T22:00:29Z</time>
      </trkpt>
      <trkpt lat="48.70546" lon="2.0469">
        <ele>79</ele>
        <time>2017-03-11T22:02:29Z</time>
      </trkpt>
      <trkpt lat="48.70432" lon="2.04783">
        <ele>84</ele>
        <time>2017-03-11T22:04:29Z</time>
      </trkpt>
      <trkpt lat="48.70423" lon="2.04847">
        <ele>84</ele>
        <time>2017-03-11T22:06:29Z</time>
      </trkpt>
      <trkpt lat="48.70363" lon="2.0498">
        <ele>84</ele>
        <time>2017-03-11T22:08:29Z</time>
      </trkpt>
      <trkpt lat="48.70334" lon="2.05058">
        <ele>84</ele>
        <time>2017-03-11T22:10:29Z</time>
      </trkpt>
      <trkpt lat="48.70227" lon="2.05296">
        <ele>89</ele>
        <time>2017-03-11T22:12:29Z</time>
      </trkpt>
      <trkpt lat="48.70222" lon="2.05405">
        <ele>85</ele>
        <time>2017-03-11T22:14:29Z</time>
      </trkpt>
      <trkpt lat="48.70266" lon="2.05738">
        <ele>82</ele>
        <time>2017-03-11T22:16:29Z</time>
      </trkpt>
      <trkpt lat="48.70269" lon="2.06176">
        <ele>79</ele>
        <time>2017-03-11T22:18:29Z</time>
      </trkpt>
      <trkpt lat="48.70245" lon="2.06277">
        <ele>80</ele>
        <time>2017-03-11T22:20:29Z</time>
      </trkpt>
      <trkpt lat="48.70236" lon="2.06542">
        <ele>78</ele>
        <time>2017-03-11T22:22:29Z</time>
      </trkpt>
      <trkpt lat="48.70284" lon="2.06831">
        <ele>77</ele>
        <time>2017-03-11T22:24:29Z</time>
      </trkpt>
      <trkpt lat="48.70311" lon="2.06956">
        <ele>78</ele>
        <time>2017-03-11T22:26:29Z</time>
      </trkpt>
      <trkpt lat="48.70307" lon="2.07072">
        <ele>79</ele>
        <time>2017-03-11T22:28:29Z</time>
      </trkpt>
    </trkseg>
  </trk>
</gpx>